createdAt,value
2018-02-10T00:00:39.834Z,7.60
2018-02-10T00:01:42.298Z,11.37
2018-02-10T00:02:44.762Z,6.90
2018-02-10T00:03:47.218Z,6.30
2018-02-10T00:04:49.678Z,8.30
2018-02-10T00:05:52.172Z,6.00
2018-02-10T00:06:54.649Z,6.03
2018-02-10T00:07:57.120Z,6.50
2018-02-10T00:08:59.591Z,5.43
2018-02-10T00:10:02.065Z,5.37
2018-02-10T00:11:04.560Z,7.53
2018-02-10T00:12:07.024Z,7.67
2018-02-10T00:13:09.500Z,9.13
2018-02-10T00:14:11.976Z,6.67
2018-02-10T00:15:14.451Z,10.20
2018-02-10T00:16:16.948Z,7.10
2018-02-10T00:17:19.411Z,12.80
2018-02-10T00:18:21.888Z,6.37
2018-02-10T00:19:24.360Z,5.80
2018-02-10T00:20:26.837Z,7.63
2018-02-10T00:21:29.331Z,6.33
2018-02-10T00:22:35.534Z,4.40
2018-02-10T00:23:37.997Z,5.60
2018-02-10T00:24:40.472Z,9.73
2018-02-10T00:25:42.930Z,7.80
2018-02-10T00:26:45.412Z,4.33
2018-02-10T00:27:47.889Z,6.00
2018-02-10T00:28:50.362Z,13.23
2018-02-10T00:29:52.862Z,11.03
2018-02-10T00:30:55.318Z,4.53
2018-02-10T00:31:57.803Z,4.33
2018-02-10T00:33:00.267Z,4.43
2018-02-10T00:34:02.763Z,13.50
2018-02-10T00:35:05.230Z,16.33
2018-02-10T00:36:07.709Z,6.33
2018-02-10T00:37:10.199Z,5.37
2018-02-10T00:38:12.673Z,4.77
2018-02-10T00:39:15.135Z,7.83
2018-02-10T00:40:17.617Z,7.87
2018-02-10T00:41:20.095Z,5.53
2018-02-10T00:42:22.578Z,4.23
2018-02-10T00:43:25.043Z,5.10
2018-02-10T00:44:27.507Z,3.80
2018-02-10T00:45:29.981Z,3.17
2018-02-10T00:46:32.442Z,6.07
2018-02-10T00:47:34.928Z,3.87
2018-02-10T00:48:37.413Z,3.43
2018-02-10T00:49:39.879Z,8.67
2018-02-10T00:50:42.356Z,4.83
2018-02-10T00:51:44.818Z,5.93
2018-02-10T00:52:47.303Z,5.57
2018-02-10T00:53:49.767Z,5.20
2018-02-10T00:54:52.240Z,6.73
2018-02-10T00:55:54.715Z,5.30
2018-02-10T00:56:57.188Z,3.50
2018-02-10T00:57:59.684Z,6.97
2018-02-10T00:59:02.138Z,3.23
2018-02-10T01:00:04.603Z,12.97
2018-02-10T01:01:07.088Z,5.10
2018-02-10T01:02:09.555Z,3.23
2018-02-10T01:03:12.039Z,3.90
2018-02-10T01:04:14.513Z,5.53
2018-02-10T01:05:16.978Z,4.07
2018-02-10T01:06:19.442Z,6.07
2018-02-10T01:07:21.903Z,4.70
2018-02-10T01:08:24.383Z,4.73
2018-02-10T01:09:26.850Z,3.07
2018-02-10T01:10:29.328Z,3.50
2018-02-10T01:11:31.796Z,5.03
2018-02-10T01:12:34.276Z,9.00
2018-02-10T01:13:36.786Z,59.60
2018-02-10T01:14:39.248Z,4.70
2018-02-10T01:15:42.360Z,8.20
2018-02-10T01:16:44.831Z,8.37
2018-02-10T01:17:47.303Z,10.40
2018-02-10T01:18:49.800Z,8.83
2018-02-10T01:19:52.276Z,6.53
2018-02-10T01:20:54.747Z,12.10
2018-02-10T01:21:57.220Z,9.20
2018-02-10T01:22:59.696Z,10.60
2018-02-10T01:24:02.182Z,9.40
2018-02-10T01:25:04.656Z,7.83
2018-02-10T01:26:07.122Z,11.33
2018-02-10T01:27:09.601Z,10.03
2018-02-10T01:28:12.168Z,6.30
2018-02-10T01:29:14.646Z,6.03
2018-02-10T01:30:17.110Z,11.20
2018-02-10T01:31:19.574Z,15.03
2018-02-10T01:32:22.048Z,9.33
2018-02-10T01:33:24.506Z,6.60
2018-02-10T01:34:26.990Z,9.60
2018-02-10T01:35:29.464Z,5.70
2018-02-10T01:36:31.945Z,15.67
2018-02-10T01:37:34.421Z,6.73
2018-02-10T01:38:36.897Z,8.07
2018-02-10T01:39:39.401Z,17.43
2018-02-10T01:40:41.866Z,8.63
2018-02-10T01:41:44.326Z,9.10
2018-02-10T01:42:46.794Z,12.53
2018-02-10T01:43:49.254Z,9.73
2018-02-10T01:44:51.752Z,11.40
2018-02-10T01:45:54.234Z,7.60
2018-02-10T01:46:56.722Z,6.73
2018-02-10T01:47:59.190Z,10.50
2018-02-10T01:49:01.665Z,7.90
2018-02-10T01:50:16.060Z,4.77
2018-02-10T01:51:18.540Z,4.60
2018-02-10T01:52:21.012Z,8.80
2018-02-10T01:53:23.493Z,14.60
2018-02-10T01:54:25.954Z,5.50
2018-02-10T01:55:28.469Z,10.13
2018-02-10T01:56:30.940Z,7.30
2018-02-10T01:57:33.412Z,5.20
2018-02-10T01:58:35.934Z,5.90
2018-02-10T01:59:38.414Z,6.10
2018-02-10T02:00:40.914Z,10.07
2018-02-10T02:01:43.383Z,6.30
2018-02-10T02:02:45.860Z,4.70
2018-02-10T02:03:48.342Z,4.53
2018-02-10T02:04:50.817Z,4.97
2018-02-10T02:05:53.321Z,4.83
2018-02-10T02:06:55.782Z,7.60
2018-02-10T02:07:58.246Z,11.27
2018-02-10T02:09:00.721Z,13.40
2018-02-10T02:10:03.182Z,8.33
2018-02-10T02:11:05.666Z,5.50
2018-02-10T02:12:08.128Z,7.17
2018-02-10T02:13:10.591Z,7.20
2018-02-10T02:14:13.049Z,9.40
2018-02-10T02:15:15.506Z,9.13
2018-02-10T02:16:18.007Z,4.53
2018-02-10T02:17:20.484Z,3.77
2018-02-10T02:18:23.309Z,5.90
2018-02-10T02:19:25.781Z,8.40
2018-02-10T02:20:28.243Z,8.10
2018-02-10T02:21:30.730Z,5.53
2018-02-10T02:22:33.192Z,6.77
2018-02-10T02:23:35.664Z,5.47
2018-02-10T02:24:38.149Z,14.53
2018-02-10T02:25:40.618Z,3.20
2018-02-10T02:26:43.116Z,4.70
2018-02-10T02:27:45.577Z,6.40
2018-02-10T02:28:48.053Z,4.67
2018-02-10T02:29:50.514Z,9.33
2018-02-10T02:30:52.988Z,6.63
2018-02-10T02:31:55.485Z,4.27
2018-02-10T02:32:57.961Z,3.23
2018-02-10T02:34:00.437Z,9.33
2018-02-10T02:35:02.922Z,9.83
2018-02-10T02:36:05.387Z,10.30
2018-02-10T02:37:07.890Z,9.40
2018-02-10T02:38:10.349Z,3.90
2018-02-10T02:39:12.812Z,5.87
2018-02-10T02:40:15.266Z,4.53
2018-02-10T02:41:17.722Z,7.30
2018-02-10T02:42:20.224Z,2.40
2018-02-10T02:43:22.700Z,6.50
2018-02-10T02:44:25.166Z,4.90
2018-02-10T02:45:27.631Z,5.80
2018-02-10T02:46:30.095Z,6.10
2018-02-10T02:47:32.590Z,3.63
2018-02-10T02:48:35.076Z,5.07
2018-02-10T02:49:37.552Z,5.03
2018-02-10T02:50:40.019Z,9.27
2018-02-10T02:51:42.505Z,5.25
2018-02-10T02:52:45.013Z,6.03
2018-02-10T02:53:47.484Z,14.63
2018-02-10T02:54:49.964Z,5.83
2018-02-10T02:55:52.478Z,8.20
2018-02-10T02:56:54.964Z,4.07
2018-02-10T02:57:57.473Z,5.00
2018-02-10T02:58:59.962Z,4.93
2018-02-10T03:00:02.437Z,4.70
2018-02-10T03:01:04.901Z,3.83
2018-02-10T03:02:07.365Z,3.33
2018-02-10T03:03:09.874Z,8.57
2018-02-10T03:04:12.346Z,4.75
2018-02-10T03:05:14.833Z,6.75
2018-02-10T03:06:17.304Z,3.93
2018-02-10T03:07:19.780Z,3.87
2018-02-10T03:08:22.278Z,6.40
2018-02-10T03:09:24.761Z,3.95
2018-02-10T03:10:27.239Z,3.37
2018-02-10T03:11:29.724Z,3.60
2018-02-10T03:12:32.212Z,6.53
2018-02-10T03:13:34.721Z,4.03
2018-02-10T03:14:37.197Z,4.40
2018-02-10T03:15:39.685Z,3.05
2018-02-10T03:16:42.173Z,2.33
2018-02-10T03:17:44.648Z,4.72
2018-02-10T03:18:47.146Z,3.95
2018-02-10T03:19:49.651Z,4.37
2018-02-10T03:20:52.133Z,4.25
2018-02-10T03:21:54.822Z,6.15
2018-02-10T03:22:57.297Z,4.50
2018-02-10T03:23:59.806Z,5.35
2018-02-10T03:25:02.292Z,2.30
2018-02-10T03:26:04.754Z,4.43
2018-02-10T03:27:07.227Z,2.10
2018-02-10T03:28:09.715Z,2.28
2018-02-10T03:29:12.207Z,4.37
2018-02-10T03:30:14.775Z,6.80
2018-02-10T03:31:17.249Z,4.12
2018-02-10T03:32:19.715Z,3.50
2018-02-10T03:33:22.186Z,4.22
2018-02-10T03:34:24.710Z,4.40
2018-02-10T03:35:27.197Z,5.22
2018-02-10T03:36:29.687Z,5.18
2018-02-10T03:37:32.165Z,7.05
2018-02-10T03:38:34.648Z,7.43
2018-02-10T03:39:37.152Z,6.78
2018-02-10T03:40:39.637Z,7.18
2018-02-10T03:41:42.121Z,3.45
2018-02-10T03:42:44.605Z,2.70
2018-02-10T03:43:47.080Z,8.97
2018-02-10T03:44:49.589Z,2.17
2018-02-10T03:45:52.065Z,6.20
2018-02-10T03:46:54.530Z,4.60
2018-02-10T03:47:57.017Z,3.90
2018-02-10T03:48:59.506Z,3.40
2018-02-10T03:50:02.002Z,4.93
2018-02-10T03:51:04.474Z,3.08
2018-02-10T03:52:06.938Z,3.17
2018-02-10T03:53:09.420Z,2.78
2018-02-10T03:54:11.896Z,8.05
2018-02-10T03:55:14.404Z,8.57
2018-02-10T03:56:16.889Z,4.87
2018-02-10T03:57:19.363Z,2.33
2018-02-10T03:58:21.827Z,4.60
2018-02-10T03:59:24.310Z,11.23
2018-02-10T04:00:26.791Z,2.93
2018-02-10T04:01:29.262Z,4.57
2018-02-10T04:02:31.752Z,3.90
2018-02-10T04:03:34.237Z,3.00
2018-02-10T04:04:36.708Z,4.25
2018-02-10T04:05:39.236Z,3.05
2018-02-10T04:06:41.728Z,5.93
2018-02-10T04:07:44.211Z,7.10
2018-02-10T04:08:46.693Z,4.22
2018-02-10T04:09:49.155Z,3.70
2018-02-10T04:10:51.658Z,6.90
2018-02-10T04:11:54.149Z,8.30
2018-02-10T04:12:56.626Z,3.00
2018-02-10T04:13:59.087Z,2.10
2018-02-10T04:15:01.561Z,5.28
2018-02-10T04:16:04.054Z,4.55
2018-02-10T04:17:06.536Z,2.58
2018-02-10T04:18:09.014Z,5.40
2018-02-10T04:19:11.482Z,4.40
2018-02-10T04:20:13.954Z,1.70
2018-02-10T04:21:16.446Z,5.97
2018-02-10T04:22:18.942Z,1.73
2018-02-10T04:23:21.415Z,4.15
2018-02-10T04:24:23.894Z,9.20
2018-02-10T04:25:26.380Z,6.68
2018-02-10T04:26:28.891Z,2.15
2018-02-10T04:27:31.381Z,7.65
2018-02-10T04:28:33.869Z,3.22
2018-02-10T04:29:36.372Z,3.80
2018-02-10T04:30:38.836Z,9.52
2018-02-10T04:31:41.338Z,3.97
2018-02-10T04:32:43.811Z,9.13
2018-02-10T04:33:46.297Z,7.60
2018-02-10T04:34:48.759Z,2.23
2018-02-10T04:35:51.231Z,4.25
2018-02-10T04:36:53.714Z,5.13
2018-02-10T04:37:56.190Z,5.60
2018-02-10T04:38:58.681Z,7.70
2018-02-10T04:40:01.153Z,3.47
2018-02-10T04:41:03.618Z,2.80
2018-02-10T04:42:06.107Z,5.70
2018-02-10T04:43:08.589Z,3.28
2018-02-10T04:44:11.069Z,8.45
2018-02-10T04:45:13.568Z,2.58
2018-02-10T04:46:16.049Z,3.40
2018-02-10T04:47:18.542Z,4.15
2018-02-10T04:48:21.002Z,5.93
2018-02-10T04:49:23.474Z,7.03
2018-02-10T04:50:25.951Z,6.53
2018-02-10T04:51:28.423Z,2.72
2018-02-10T04:52:30.919Z,3.90
2018-02-10T04:53:33.373Z,9.17
2018-02-10T04:54:35.838Z,8.30
2018-02-10T04:55:38.314Z,5.72
2018-02-10T04:56:40.800Z,3.92
2018-02-10T04:57:43.304Z,3.95
2018-02-10T04:58:45.788Z,7.47
2018-02-10T04:59:48.262Z,1.90
2018-02-10T05:00:50.749Z,3.45
2018-02-10T05:01:53.245Z,4.53
2018-02-10T05:02:55.726Z,4.23
2018-02-10T05:03:58.203Z,6.77
2018-02-10T05:05:00.693Z,1.95
2018-02-10T05:06:03.183Z,4.30
2018-02-10T05:07:05.654Z,2.42
2018-02-10T05:08:08.146Z,5.80
2018-02-10T05:09:10.635Z,3.47
2018-02-10T05:10:13.125Z,2.00
2018-02-10T05:11:15.613Z,6.22
2018-02-10T05:12:18.159Z,3.53
2018-02-10T05:13:20.664Z,2.40
2018-02-10T05:14:23.149Z,3.00
2018-02-10T05:15:25.619Z,7.35
2018-02-10T05:16:28.094Z,3.95
2018-02-10T05:17:30.581Z,2.17
2018-02-10T05:18:33.077Z,3.45
2018-02-10T05:19:35.556Z,2.20
2018-02-10T05:20:38.020Z,2.07
2018-02-10T05:21:40.497Z,3.33
2018-02-10T05:22:42.979Z,2.80
2018-02-10T05:23:45.476Z,3.50
2018-02-10T05:24:47.950Z,4.28
2018-02-10T05:25:50.424Z,5.07
2018-02-10T05:26:52.897Z,2.10
2018-02-10T05:27:55.368Z,4.57
2018-02-10T05:28:57.890Z,4.25
2018-02-10T05:30:00.364Z,3.83
2018-02-10T05:31:02.841Z,2.13
2018-02-10T05:32:05.318Z,4.90
2018-02-10T05:33:07.813Z,1.70
2018-02-10T05:34:10.294Z,3.37
2018-02-10T05:35:12.755Z,5.83
2018-02-10T05:36:15.226Z,4.72
2018-02-10T05:37:17.722Z,3.03
2018-02-10T05:38:20.203Z,5.50
2018-02-10T05:39:22.712Z,2.83
2018-02-10T05:40:25.175Z,2.77
2018-02-10T05:41:27.642Z,3.20
2018-02-10T05:42:30.110Z,3.90
2018-02-10T05:43:32.574Z,5.80
2018-02-10T05:44:35.084Z,5.65
2018-02-10T05:45:37.542Z,2.77
2018-02-10T05:46:40.027Z,17.83
2018-02-10T05:47:42.490Z,4.60
2018-02-10T05:48:44.969Z,9.60
2018-02-10T05:49:47.482Z,10.45
2018-02-10T05:50:49.943Z,8.13
2018-02-10T05:51:52.416Z,5.63
2018-02-10T05:52:54.894Z,5.37
2018-02-10T05:53:57.355Z,9.60
2018-02-10T05:54:59.860Z,7.50
2018-02-10T05:56:02.357Z,6.47
2018-02-10T05:57:04.822Z,7.12
2018-02-10T05:58:07.283Z,5.80
2018-02-10T05:59:09.780Z,13.20
2018-02-10T06:00:12.293Z,14.38
2018-02-10T06:01:14.762Z,8.63
2018-02-10T06:02:17.248Z,10.90
2018-02-10T06:03:19.731Z,13.20
2018-02-10T06:04:22.206Z,10.67
2018-02-10T06:05:24.710Z,29.17
2018-02-10T06:06:27.260Z,10.00
2018-02-10T06:07:29.747Z,10.03
2018-02-10T06:08:32.210Z,6.40
2018-02-10T06:09:34.679Z,15.50
2018-02-10T06:10:37.166Z,7.17
2018-02-10T06:11:39.640Z,8.63
2018-02-10T06:12:42.101Z,9.90
2018-02-10T06:13:44.609Z,11.53
2018-02-10T06:14:47.081Z,7.20
2018-02-10T06:15:49.585Z,9.53
2018-02-10T06:16:52.061Z,7.97
2018-02-10T06:17:54.675Z,9.30
2018-02-10T06:18:57.152Z,11.60
2018-02-10T06:19:59.632Z,7.90
2018-02-10T06:21:02.114Z,7.23
2018-02-10T06:22:04.589Z,8.40
2018-02-10T06:23:07.055Z,5.93
2018-02-10T06:24:09.527Z,4.30
2018-02-10T06:25:12.011Z,8.87
2018-02-10T06:26:14.495Z,6.80
2018-02-10T06:27:17.100Z,5.33
2018-02-10T06:28:19.558Z,7.10
2018-02-10T06:29:22.041Z,12.30
2018-02-10T06:30:24.546Z,11.40
2018-02-10T06:31:27.030Z,11.80
2018-02-10T06:32:29.509Z,9.90
2018-02-10T06:33:31.990Z,8.20
2018-02-10T06:34:34.469Z,10.43
2018-02-10T06:35:36.935Z,12.87
2018-02-10T06:36:39.431Z,10.43
2018-02-10T06:37:41.902Z,16.13
2018-02-10T06:38:44.371Z,12.17
2018-02-10T06:39:46.853Z,17.33
2018-02-10T06:40:49.346Z,12.27
2018-02-10T06:41:51.834Z,17.97
2018-02-10T06:42:54.308Z,15.67
2018-02-10T06:43:56.778Z,14.33
2018-02-10T06:44:59.257Z,18.30
2018-02-10T06:46:01.723Z,18.63
2018-02-10T06:47:04.207Z,17.70
2018-02-10T06:48:06.684Z,16.77
2018-02-10T06:49:09.161Z,15.77
2018-02-10T06:50:11.719Z,16.40
2018-02-10T06:51:14.305Z,19.30
2018-02-10T06:52:17.027Z,19.33
2018-02-10T06:53:19.479Z,23.13
2018-02-10T06:54:21.968Z,26.30
2018-02-10T06:55:24.446Z,19.17
2018-02-10T06:56:26.979Z,21.10
2018-02-10T06:57:29.500Z,23.47
2018-02-10T06:58:31.984Z,22.20
2018-02-10T06:59:34.454Z,22.90
2018-02-10T07:00:36.930Z,21.50
2018-02-10T07:01:39.410Z,26.50
2018-02-10T07:02:41.919Z,23.92
2018-02-10T07:03:44.417Z,27.30
2018-02-10T07:04:46.882Z,25.00
2018-02-10T07:05:49.354Z,21.50
2018-02-10T07:06:51.852Z,27.67
2018-02-10T07:07:54.555Z,28.00
2018-02-10T07:08:57.182Z,31.08
2018-02-10T07:09:59.676Z,26.55
2018-02-10T07:11:02.210Z,26.87
2018-02-10T07:12:04.785Z,25.25
2018-02-10T07:13:07.300Z,33.58
2018-02-10T07:14:09.784Z,24.92
2018-02-10T07:15:12.274Z,28.35
2018-02-10T07:16:14.750Z,26.73
2018-02-10T07:17:17.695Z,26.85
2018-02-10T07:18:20.212Z,23.60
2018-02-10T07:19:22.750Z,32.15
2018-02-10T07:20:25.296Z,30.33
2018-02-10T07:21:27.848Z,28.27
2018-02-10T07:22:30.337Z,32.38
2018-02-10T07:23:32.856Z,32.28
2018-02-10T07:24:35.405Z,27.50
2018-02-10T07:25:37.882Z,30.90
2018-02-10T07:26:40.361Z,27.95
2018-02-10T07:27:42.859Z,30.23
2018-02-10T07:28:45.370Z,28.20
2018-02-10T07:29:48.689Z,32.63
2018-02-10T07:30:51.177Z,30.40
2018-02-10T07:31:53.651Z,28.65
2018-02-10T07:32:56.130Z,26.70
2018-02-10T07:33:58.647Z,29.65
2018-02-10T07:35:01.135Z,30.90
2018-02-10T07:36:03.768Z,31.05
2018-02-10T07:37:06.270Z,28.85
2018-02-10T07:38:08.765Z,25.88
2018-02-10T07:39:11.280Z,29.90
2018-02-10T07:40:13.776Z,21.10
2018-02-10T07:41:16.262Z,24.83
2018-02-10T07:42:18.752Z,29.02
2018-02-10T07:43:21.252Z,23.62
2018-02-10T07:44:23.747Z,22.52
2018-02-10T07:45:26.244Z,23.67
2018-02-10T07:46:28.719Z,19.08
2018-02-10T07:47:31.195Z,19.70
2018-02-10T07:48:33.730Z,21.87
2018-02-10T07:49:36.226Z,18.33
2018-02-10T07:50:38.717Z,19.48
2018-02-10T07:51:41.194Z,25.58
2018-02-10T07:52:43.685Z,20.23
2018-02-10T07:53:46.172Z,20.30
2018-02-10T07:54:48.702Z,19.12
2018-02-10T07:55:51.194Z,15.27
2018-02-10T07:56:53.666Z,14.82
2018-02-10T07:57:56.151Z,14.82
2018-02-10T07:58:58.636Z,17.23
2018-02-10T08:00:01.135Z,12.98
2018-02-10T08:01:03.610Z,14.32
2018-02-10T08:02:06.105Z,15.38
2018-02-10T08:03:08.590Z,12.68
2018-02-10T08:04:11.086Z,13.25
2018-02-10T08:05:13.582Z,14.57
2018-02-10T08:06:16.059Z,14.60
2018-02-10T08:07:18.552Z,12.20
2018-02-10T08:08:21.027Z,13.60
2018-02-10T08:09:23.521Z,10.50
2018-02-10T08:10:26.010Z,12.23
2018-02-10T08:11:28.559Z,12.80
2018-02-10T08:12:31.113Z,13.67
2018-02-10T08:13:33.679Z,10.57
2018-02-10T08:14:36.341Z,14.48
2018-02-10T08:15:38.822Z,8.90
2018-02-10T08:16:41.355Z,12.02
2018-02-10T08:17:43.826Z,10.70
2018-02-10T08:18:46.299Z,11.50
2018-02-10T08:19:48.758Z,8.93
2018-02-10T08:20:51.243Z,8.20
2018-02-10T08:21:53.708Z,10.00
2018-02-10T08:22:56.226Z,8.20
2018-02-10T08:23:58.696Z,8.90
2018-02-10T08:25:01.169Z,9.20
2018-02-10T08:26:03.650Z,7.47
2018-02-10T08:27:06.124Z,8.30
2018-02-10T08:28:08.605Z,8.20
2018-02-10T08:29:11.071Z,8.10
2018-02-10T08:30:13.615Z,7.60
2018-02-10T08:31:16.094Z,8.63
2018-02-10T08:32:18.573Z,7.97
2018-02-10T08:33:21.034Z,7.80
2018-02-10T08:34:23.495Z,6.30
2018-02-10T08:35:25.968Z,6.00
2018-02-10T08:36:28.450Z,8.00
2018-02-10T08:37:30.907Z,8.03
2018-02-10T08:38:33.368Z,8.90
2018-02-10T08:39:35.842Z,8.70
2018-02-10T08:40:38.318Z,9.00
2018-02-10T08:41:40.853Z,6.77
2018-02-10T08:42:43.339Z,6.37
2018-02-10T08:43:45.794Z,6.07
2018-02-10T08:44:48.264Z,5.60
2018-02-10T08:45:50.727Z,7.27
2018-02-10T08:46:53.226Z,8.23
2018-02-10T08:47:55.694Z,10.50
2018-02-10T08:48:58.155Z,5.40
2018-02-10T08:50:00.618Z,5.13
2018-02-10T08:51:03.094Z,6.87
2018-02-10T08:52:05.593Z,5.70
2018-02-10T08:53:08.055Z,4.80
2018-02-10T08:54:10.518Z,10.90
2018-02-10T08:55:12.992Z,7.30
2018-02-10T08:56:15.454Z,5.90
2018-02-10T08:57:17.943Z,10.40
2018-02-10T08:58:20.417Z,6.67
2018-02-10T08:59:22.893Z,5.80
2018-02-10T09:00:25.363Z,4.93
2018-02-10T09:01:27.841Z,7.03
2018-02-10T09:02:30.342Z,5.33
2018-02-10T09:03:32.803Z,5.93
2018-02-10T09:04:35.276Z,5.93
2018-02-10T09:05:37.749Z,5.80
2018-02-10T09:06:40.223Z,6.70
2018-02-10T09:07:42.726Z,6.60
2018-02-10T09:08:45.205Z,5.27
2018-02-10T09:09:47.667Z,7.23
2018-02-10T09:10:50.131Z,9.90
2018-02-10T09:11:52.595Z,8.17
2018-02-10T09:12:55.096Z,7.73
2018-02-10T09:13:57.580Z,10.50
2018-02-10T09:15:00.051Z,5.90
2018-02-10T09:16:02.529Z,5.93
2018-02-10T09:17:05.024Z,12.27
2018-02-10T09:18:07.522Z,8.50
2018-02-10T09:19:09.990Z,12.23
2018-02-10T09:20:12.462Z,5.80
2018-02-10T09:21:14.964Z,4.67
2018-02-10T09:22:17.430Z,8.27
2018-02-10T09:23:19.934Z,9.40
2018-02-10T09:24:22.439Z,5.40
2018-02-10T09:25:24.923Z,6.67
2018-02-10T09:26:27.405Z,18.10
2018-02-10T09:27:29.889Z,38.77
2018-02-10T09:28:32.393Z,30.30
2018-02-10T09:29:34.859Z,25.03
2018-02-10T09:30:37.327Z,23.10
2018-02-10T09:31:39.790Z,15.10
2018-02-10T09:32:42.255Z,19.13
2018-02-10T09:33:44.753Z,13.90
2018-02-10T09:34:47.236Z,27.00
2018-02-10T09:35:49.707Z,16.07
2018-02-10T09:36:52.186Z,20.20
2018-02-10T09:37:54.664Z,10.50
2018-02-10T09:38:57.148Z,14.70
2018-02-10T09:39:59.614Z,12.73
2018-02-10T09:41:02.092Z,12.77
2018-02-10T09:42:05.527Z,14.60
2018-02-10T09:43:08.315Z,11.13
2018-02-10T09:44:10.828Z,10.73
2018-02-10T09:45:13.307Z,12.20
2018-02-10T09:46:15.774Z,14.27
2018-02-10T09:47:18.238Z,11.30
2018-02-10T09:48:20.721Z,10.17
2018-02-10T09:49:23.225Z,10.47
2018-02-10T09:50:25.687Z,9.60
2018-02-10T09:51:28.160Z,8.43
2018-02-10T09:52:30.627Z,8.30
2018-02-10T09:53:44.112Z,10.13
2018-02-10T09:54:46.587Z,5.40
2018-02-10T09:55:49.065Z,8.90
2018-02-10T09:56:51.545Z,5.93
2018-02-10T09:57:54.020Z,9.23
2018-02-10T09:58:56.492Z,9.40
2018-02-10T09:59:58.968Z,10.10
2018-02-10T10:01:01.439Z,28.40
2018-02-10T10:02:03.899Z,8.03
2018-02-10T10:03:06.362Z,9.90
2018-02-10T10:04:08.827Z,7.30
2018-02-10T10:05:11.283Z,5.77
2018-02-10T10:06:13.776Z,10.60
2018-02-10T10:07:16.248Z,6.30
2018-02-10T10:08:29.564Z,8.63
2018-02-10T10:09:32.022Z,5.43
2018-02-10T10:10:34.499Z,6.80
2018-02-10T10:11:36.973Z,9.50
2018-02-10T10:12:39.465Z,5.90
2018-02-10T10:13:41.959Z,7.40
2018-02-10T10:14:44.461Z,9.20
2018-02-10T10:15:46.945Z,7.97
2018-02-10T10:16:49.407Z,7.83
2018-02-10T10:17:51.881Z,7.20
2018-02-10T10:18:54.348Z,5.67
2018-02-10T10:19:56.848Z,6.03
2018-02-10T10:20:59.365Z,5.67
2018-02-10T10:22:01.849Z,7.23
2018-02-10T10:23:04.317Z,7.13
2018-02-10T10:24:06.806Z,7.17
2018-02-10T10:25:09.295Z,13.83
2018-02-10T10:26:11.773Z,8.13
2018-02-10T10:27:14.238Z,11.10
2018-02-10T10:28:16.712Z,7.63
2018-02-10T10:29:19.193Z,12.63
2018-02-10T10:30:21.698Z,5.30
2018-02-10T10:31:24.176Z,4.20
2018-02-10T10:32:26.649Z,6.50
2018-02-10T10:33:29.121Z,4.17
2018-02-10T10:34:31.586Z,7.90
2018-02-10T10:35:34.079Z,7.53
2018-02-10T10:36:36.555Z,9.87
2018-02-10T10:37:39.155Z,6.53
2018-02-10T10:38:41.668Z,6.03
2018-02-10T10:39:44.152Z,5.70
2018-02-10T10:40:46.649Z,5.70
2018-02-10T10:41:49.292Z,5.93
2018-02-10T10:42:51.793Z,6.20
2018-02-10T10:43:54.256Z,5.03
2018-02-10T10:44:56.714Z,5.53
2018-02-10T10:45:59.221Z,5.50
2018-02-10T10:47:01.837Z,5.87
2018-02-10T10:48:04.262Z,8.50
2018-02-10T10:49:06.723Z,4.70
2018-02-10T10:50:09.187Z,5.20
2018-02-10T10:51:11.675Z,4.97
2018-02-10T10:52:14.166Z,4.67
2018-02-10T10:53:16.656Z,3.90
2018-02-10T10:54:19.128Z,5.10
2018-02-10T10:55:21.610Z,6.13
2018-02-10T10:56:24.095Z,5.03
2018-02-10T10:57:26.577Z,5.30
2018-02-10T10:58:29.035Z,5.70
2018-02-10T10:59:31.503Z,6.53
2018-02-10T11:00:33.963Z,4.93
2018-02-10T11:01:36.460Z,5.60
2018-02-10T11:02:38.941Z,3.50
2018-02-10T11:03:41.424Z,6.20
2018-02-10T11:04:43.900Z,5.13
2018-02-10T11:05:46.363Z,7.50
2018-02-10T11:06:48.864Z,4.43
2018-02-10T11:07:51.330Z,6.23
2018-02-10T11:08:53.786Z,4.57
2018-02-10T11:09:56.251Z,4.70
2018-02-10T11:10:58.729Z,4.50
2018-02-10T11:12:01.230Z,4.87
2018-02-10T11:13:03.694Z,6.40
2018-02-10T11:14:06.159Z,4.90
2018-02-10T11:15:08.640Z,5.17
2018-02-10T11:16:11.112Z,5.43
2018-02-10T11:17:13.604Z,8.13
2018-02-10T11:18:16.077Z,6.67
2018-02-10T11:19:18.548Z,5.00
2018-02-10T11:20:21.011Z,5.17
2018-02-10T11:21:23.492Z,5.73
2018-02-10T11:22:25.992Z,7.77
2018-02-10T11:23:28.463Z,7.90
2018-02-10T11:24:30.932Z,9.73
2018-02-10T11:25:33.395Z,11.93
2018-02-10T11:26:35.863Z,16.53
2018-02-10T11:27:38.410Z,7.97
2018-02-10T11:28:40.878Z,8.10
2018-02-10T11:29:43.346Z,7.30
2018-02-10T11:30:45.810Z,7.60
2018-02-10T11:31:48.291Z,8.77
2018-02-10T11:32:50.789Z,14.40
2018-02-10T11:33:53.265Z,8.07
2018-02-10T11:34:55.741Z,9.80
2018-02-10T11:35:58.236Z,12.17
2018-02-10T11:37:00.712Z,7.43
2018-02-10T11:38:03.215Z,6.80
2018-02-10T11:39:05.684Z,11.27
2018-02-10T11:40:08.165Z,8.47
2018-02-10T11:41:10.671Z,13.10
2018-02-10T11:42:13.150Z,8.10
2018-02-10T11:43:15.667Z,10.93
2018-02-10T11:44:18.134Z,7.93
2018-02-10T11:45:20.616Z,10.80
2018-02-10T11:46:23.099Z,18.03
2018-02-10T11:47:25.596Z,12.70
2018-02-10T11:48:28.387Z,11.50
2018-02-10T11:49:30.896Z,10.23
2018-02-10T11:50:33.371Z,7.90
2018-02-10T11:51:35.851Z,10.67
2018-02-10T11:52:39.853Z,10.00
2018-02-10T11:53:41.340Z,9.93
2018-02-10T11:54:43.829Z,9.50
2018-02-10T11:55:46.305Z,16.53
2018-02-10T11:56:48.770Z,11.90
2018-02-10T11:57:51.248Z,8.97
2018-02-10T11:58:53.757Z,12.50
2018-02-10T11:59:56.488Z,14.47
2018-02-10T12:00:58.975Z,11.20
2018-02-10T12:02:01.459Z,14.90
2018-02-10T12:03:03.933Z,9.80
2018-02-10T12:04:06.442Z,10.43
2018-02-10T12:05:08.911Z,12.27
2018-02-10T12:06:11.389Z,12.30
2018-02-10T12:07:13.868Z,20.33
2018-02-10T12:08:16.331Z,9.80
2018-02-10T12:09:18.830Z,9.17
2018-02-10T12:10:21.309Z,13.33
2018-02-10T12:11:23.774Z,14.80
2018-02-10T12:12:26.267Z,11.67
2018-02-10T12:13:28.781Z,9.07
2018-02-10T12:14:31.284Z,8.57
2018-02-10T12:15:33.760Z,12.43
2018-02-10T12:16:36.238Z,9.67
2018-02-10T12:17:39.685Z,9.03
2018-02-10T12:18:42.162Z,10.90
2018-02-10T12:19:44.669Z,8.47
2018-02-10T12:20:47.157Z,12.27
2018-02-10T12:21:49.813Z,11.03
2018-02-10T12:22:52.410Z,10.03
2018-02-10T12:23:54.882Z,9.53
2018-02-10T12:24:57.358Z,8.10
2018-02-10T12:25:59.823Z,8.03
2018-02-10T12:27:02.305Z,13.93
2018-02-10T12:28:04.788Z,9.70
2018-02-10T12:29:07.261Z,8.30
2018-02-10T12:30:09.765Z,10.43
2018-02-10T12:31:12.269Z,12.20
2018-02-10T12:32:14.733Z,6.53
2018-02-10T12:33:17.204Z,14.63
2018-02-10T12:34:19.667Z,6.97
2018-02-10T12:35:22.155Z,10.40
2018-02-10T12:36:24.639Z,16.00
2018-02-10T12:37:27.121Z,7.87
2018-02-10T12:38:29.582Z,8.53
2018-02-10T12:39:32.066Z,9.57
2018-02-10T12:40:34.554Z,9.40
2018-02-10T12:41:37.061Z,10.00
2018-02-10T12:42:39.531Z,7.80
2018-02-10T12:43:41.995Z,7.77
2018-02-10T12:44:44.478Z,10.40
2018-02-10T12:45:46.981Z,7.10
2018-02-10T12:46:49.457Z,6.60
2018-02-10T12:49:35.835Z,8.00
2018-02-10T12:50:38.317Z,14.43
2018-02-10T12:51:40.792Z,8.57
2018-02-10T12:52:43.283Z,9.47
2018-02-10T12:53:45.763Z,10.57
2018-02-10T12:54:48.235Z,8.83
2018-02-10T12:55:50.727Z,7.73
2018-02-10T12:56:53.210Z,9.67
2018-02-10T12:57:55.675Z,6.80
2018-02-10T12:58:58.141Z,5.20
2018-02-10T13:00:00.626Z,6.40
2018-02-10T13:01:03.107Z,7.93
2018-02-10T13:02:05.580Z,6.10
2018-02-10T13:03:08.072Z,11.70
2018-02-10T13:04:10.578Z,7.20
2018-02-10T13:05:13.080Z,8.00
2018-02-10T13:06:15.569Z,7.43
2018-02-10T13:07:18.032Z,7.80
2018-02-10T13:08:20.496Z,8.37
2018-02-10T13:09:22.962Z,6.80
2018-02-10T13:10:25.426Z,11.50
2018-02-10T13:11:27.900Z,7.27
2018-02-10T13:12:30.407Z,7.83
2018-02-10T13:13:32.927Z,6.93
2018-02-10T13:14:35.371Z,6.67
2018-02-10T13:15:37.903Z,9.00
2018-02-10T13:16:40.368Z,13.43
2018-02-10T13:17:42.876Z,10.20
2018-02-10T13:18:45.343Z,7.40
2018-02-10T13:19:47.848Z,12.40
2018-02-10T13:20:50.330Z,8.30
2018-02-10T13:21:52.811Z,33.47
2018-02-10T13:22:55.297Z,8.00
2018-02-10T13:23:57.799Z,10.80
2018-02-10T13:25:00.267Z,5.97
2018-02-10T13:26:02.753Z,8.37
2018-02-10T13:27:05.219Z,9.27
2018-02-10T13:28:07.846Z,7.90
2018-02-10T13:29:10.333Z,11.50
2018-02-10T13:30:12.817Z,14.30
2018-02-10T13:31:15.286Z,10.50
2018-02-10T13:32:17.747Z,8.47
2018-02-10T13:33:20.215Z,7.43
2018-02-10T13:34:22.678Z,10.27
2018-02-10T13:35:25.172Z,9.23
2018-02-10T13:36:27.638Z,9.77
2018-02-10T13:37:30.116Z,9.00
2018-02-10T13:38:32.593Z,8.03
2018-02-10T13:39:35.054Z,6.47
2018-02-10T13:40:37.539Z,7.60
2018-02-10T13:41:40.022Z,9.33
2018-02-10T13:42:42.505Z,11.50
2018-02-10T13:43:44.979Z,18.03
2018-02-10T13:44:47.447Z,18.33
2018-02-10T13:45:49.925Z,8.60